Aviation Digital Data Service (ADDS)

Output produced by METARs form (0534 UTC 26 February 2017)
found at http://aviationweather.gov/adds/metars/
 
KINT 260522Z 2606/2706 30008KT P6SM SKC 
     FM262300 VRB05KT P6SM SCT250